Time;durP1;ratioP1;P1;durP2;ratioP2;P2;SDS_P1;SDS_P2;PMS_P1;PMS_P2;Temp;Humidity;BMP_temperature;BMP_pressure;BME280_temperature;BME280_humidity;BME280_pressure;Samples;Min_cycle;Max_cycle;Signal;HPM_P1;HPM_P2
2022/03/16 00:01:44;;;;;;;1.38;1.38;;;17.70;64.90;;;;;;5003023;28;20046;-13
2022/03/16 00:04:09;;;;;;;1.48;1.38;;;17.70;64.80;;;;;;4974997;28;20047;-13
2022/03/16 00:06:35;;;;;;;1.67;1.58;;;17.70;64.80;;;;;;4974624;28;20197;-14
2022/03/16 00:09:00;;;;;;;1.45;1.35;;;17.70;64.90;;;;;;4982999;28;20042;-13
2022/03/16 00:11:26;;;;;;;1.45;1.38;;;17.70;64.80;;;;;;4997230;28;20132;-15
2022/03/16 00:13:51;;;;;;;1.63;1.52;;;17.70;64.90;;;;;;4997264;28;20046;-12
2022/03/16 00:16:17;;;;;;;1.60;1.50;;;17.70;65.00;;;;;;4996059;28;20046;-16
2022/03/16 00:18:43;;;;;;;1.55;1.45;;;17.70;64.80;;;;;;4997696;28;20626;-15
2022/03/16 00:21:08;;;;;;;1.60;1.50;;;17.70;64.70;;;;;;4998795;28;20141;-12
2022/03/16 00:23:34;;;;;;;1.27;1.17;;;17.70;64.90;;;;;;4998780;28;20438;-13
2022/03/16 00:25:59;;;;;;;1.58;1.48;;;17.60;64.90;;;;;;4998892;28;20043;-13
2022/03/16 00:28:25;;;;;;;1.40;1.30;;;17.70;64.80;;;;;;4999188;28;20073;-13
2022/03/16 00:30:51;;;;;;;1.80;1.70;;;17.70;64.70;;;;;;4998599;28;20057;-12
2022/03/16 00:33:16;;;;;;;1.50;1.40;;;17.70;64.80;;;;;;4985780;28;20042;-12
2022/03/16 00:35:42;;;;;;;1.90;1.67;;;17.60;64.90;;;;;;4997458;28;20511;-15
2022/03/16 00:38:09;;;;;;;1.58;1.48;;;17.60;64.80;;;;;;4998572;28;20439;-13
2022/03/16 00:40:35;;;;;;;1.38;1.30;;;17.60;64.80;;;;;;4999169;28;20137;-14
2022/03/16 00:43:01;;;;;;;1.40;1.30;;;17.60;64.80;;;;;;4998471;28;20038;-15
2022/03/16 00:45:27;;;;;;;1.00;1.00;;;17.60;64.90;;;;;;4987536;28;20058;-14
2022/03/16 00:47:52;;;;;;;1.67;1.58;;;17.50;64.90;;;;;;4993359;28;20030;-14
2022/03/16 00:50:18;;;;;;;1.55;1.45;;;17.60;64.90;;;;;;4998378;28;20084;-14
2022/03/16 00:52:43;;;;;;;1.83;1.48;;;17.60;65.60;;;;;;4997095;28;20069;-14
2022/03/16 00:55:09;;;;;;;1.42;1.33;;;17.60;64.80;;;;;;4987631;28;20043;-14
2022/03/16 00:57:35;;;;;;;1.50;1.40;;;17.60;64.80;;;;;;4992152;28;20049;-14
2022/03/16 01:00:00;;;;;;;1.45;1.45;;;17.60;64.70;;;;;;4994661;28;20046;-14
2022/03/16 01:02:26;;;;;;;1.60;1.50;;;17.60;64.60;;;;;;4997426;28;20046;-17
2022/03/16 01:04:52;;;;;;;1.20;1.20;;;17.60;64.70;;;;;;4997915;28;20069;-14
2022/03/16 01:07:17;;;;;;;1.77;1.67;;;17.50;64.80;;;;;;4987905;28;20042;-13
2022/03/16 01:09:43;;;;;;;1.70;1.05;;;17.50;64.90;;;;;;4990672;28;20078;-14
2022/03/16 01:12:09;;;;;;;1.95;1.40;;;17.60;64.90;;;;;;4990224;28;20113;-13
2022/03/16 01:14:35;;;;;;;1.35;1.25;;;17.60;64.70;;;;;;4984297;28;20081;-14
2022/03/16 01:17:00;;;;;;;1.50;1.40;;;17.60;64.70;;;;;;4989482;28;20069;-14
2022/03/16 01:19:26;;;;;;;1.35;1.17;;;17.60;64.80;;;;;;4989091;28;20055;-14
2022/03/16 01:21:53;;;;;;;1.30;1.30;;;17.60;65.50;;;;;;4993566;28;20177;-14
2022/03/16 01:24:19;;;;;;;1.35;1.27;;;17.60;64.70;;;;;;4997221;28;20081;-14
2022/03/16 01:26:44;;;;;;;1.20;1.20;;;17.60;64.60;;;;;;4997863;28;20081;-14
2022/03/16 01:29:10;;;;;;;1.02;1.02;;;17.60;64.60;;;;;;4998015;28;20042;-14
2022/03/16 01:31:36;;;;;;;1.10;1.10;;;17.60;64.60;;;;;;4997819;28;20042;-13
2022/03/16 01:34:01;;;;;;;1.33;1.20;;;17.50;64.80;;;;;;4997010;28;20423;-14
2022/03/16 01:36:27;;;;;;;1.17;1.17;;;17.60;64.70;;;;;;4998119;28;20068;-13
2022/03/16 01:38:52;;;;;;;1.42;1.33;;;17.60;64.60;;;;;;4994758;28;20442;-16
2022/03/16 01:41:18;;;;;;;1.25;1.15;;;17.60;64.50;;;;;;4993895;28;20093;-14
2022/03/16 01:43:44;;;;;;;1.30;1.20;;;17.60;64.40;;;;;;4997380;28;20423;-14
2022/03/16 01:46:09;;;;;;;1.38;1.30;;;17.60;64.50;;;;;;4998135;28;20133;-16
2022/03/16 01:48:35;;;;;;;1.50;1.40;;;17.60;64.50;;;;;;4997985;28;20130;-13
2022/03/16 01:51:00;;;;;;;1.35;1.13;;;17.60;64.60;;;;;;4986996;28;20043;-19
2022/03/16 01:53:26;;;;;;;1.35;1.27;;;17.60;64.60;;;;;;4971673;28;20043;-15
2022/03/16 01:55:52;;;;;;;1.42;1.33;;;17.60;64.60;;;;;;4977719;28;20042;-15
2022/03/16 01:58:18;;;;;;;1.33;1.20;;;17.60;64.60;;;;;;4978233;28;20046;-16
2022/03/16 02:00:43;;;;;;;1.02;1.02;;;17.60;64.70;;;;;;4978063;28;20043;-14
2022/03/16 02:03:09;;;;;;;1.50;1.40;;;17.60;64.60;;;;;;4983653;28;20046;-14
2022/03/16 02:05:35;;;;;;;1.10;1.10;;;17.50;64.70;;;;;;4985348;28;20042;-13
2022/03/16 02:08:01;;;;;;;1.40;1.33;;;17.60;64.90;;;;;;4993464;28;20107;-13
2022/03/16 02:10:27;;;;;;;1.60;1.50;;;17.50;64.80;;;;;;4996518;28;20083;-14
2022/03/16 02:12:52;;;;;;;1.60;1.50;;;17.50;64.80;;;;;;4986790;28;20085;-13
2022/03/16 02:15:19;;;;;;;1.13;1.13;;;17.50;64.80;;;;;;4987423;28;20050;-13
2022/03/16 02:17:44;;;;;;;1.50;1.40;;;17.60;64.80;;;;;;4986037;28;20409;-14
2022/03/16 02:20:10;;;;;;;1.33;1.23;;;17.60;64.80;;;;;;4985419;28;20077;-13
2022/03/16 02:22:37;;;;;;;0.93;0.88;;;17.60;64.90;;;;;;4987652;28;20038;-13
2022/03/16 02:25:07;;;;;;;1.23;1.23;;;17.50;64.80;;;;;;4985706;28;20046;-14
2022/03/16 02:27:33;;;;;;;1.10;1.10;;;17.50;64.80;;;;;;4985738;28;20094;-14
2022/03/16 02:29:58;;;;;;;1.08;1.08;;;17.50;64.90;;;;;;4985710;28;20098;-13
2022/03/16 02:32:24;;;;;;;1.50;1.40;;;17.50;64.80;;;;;;4986327;28;20034;-12
2022/03/16 02:34:49;;;;;;;1.23;1.23;;;17.50;64.80;;;;;;4987277;28;20504;-13
2022/03/16 02:37:15;;;;;;;1.45;1.35;;;17.50;65.00;;;;;;4984971;28;20057;-13
2022/03/16 02:39:41;;;;;;;1.42;1.33;;;17.50;64.90;;;;;;4987759;28;20034;-13
2022/03/16 02:42:07;;;;;;;1.70;1.60;;;17.50;64.90;;;;;;4983942;28;20050;-13
2022/03/16 02:44:32;;;;;;;1.40;1.35;;;17.50;64.90;;;;;;4986838;28;20056;-14
2022/03/16 02:46:58;;;;;;;1.20;1.15;;;17.50;64.90;;;;;;4986777;28;20039;-13
2022/03/16 02:49:24;;;;;;;1.35;1.25;;;17.50;64.90;;;;;;4986074;28;20054;-13
2022/03/16 02:51:49;;;;;;;1.40;1.30;;;17.50;65.00;;;;;;4986442;28;20519;-13
2022/03/16 02:54:15;;;;;;;1.63;1.52;;;17.50;65.00;;;;;;4984803;28;20047;-13
2022/03/16 02:56:40;;;;;;;1.17;1.08;;;17.50;64.90;;;;;;4987311;28;20127;-13
2022/03/16 02:59:06;;;;;;;1.42;1.33;;;17.50;64.90;;;;;;4985194;28;20137;-15
2022/03/16 03:01:32;;;;;;;1.00;1.00;;;17.50;64.90;;;;;;4984695;28;20042;-14
2022/03/16 03:03:57;;;;;;;1.27;1.20;;;17.50;64.90;;;;;;4984292;28;20038;-13
2022/03/16 03:06:23;;;;;;;1.13;1.13;;;17.50;65.00;;;;;;4985867;28;20054;-13
2022/03/16 03:08:49;;;;;;;1.20;1.20;;;17.50;65.00;;;;;;4989761;28;20046;-13
2022/03/16 03:11:15;;;;;;;1.13;1.10;;;17.50;65.00;;;;;;4996623;28;20046;-13
2022/03/16 03:13:40;;;;;;;1.40;1.30;;;17.40;64.80;;;;;;4979367;28;20053;-13
2022/03/16 03:16:06;;;;;;;1.63;1.52;;;17.50;64.90;;;;;;4976415;28;20156;-14
2022/03/16 03:18:35;;;;;;;0.93;0.93;;;17.40;65.00;;;;;;4976806;28;20066;-13
2022/03/16 03:21:01;;;;;;;1.23;1.17;;;17.40;65.00;;;;;;4976733;28;20050;-13
2022/03/16 03:23:27;;;;;;;1.00;1.00;;;17.40;64.90;;;;;;4976695;28;20041;-13
2022/03/16 03:25:52;;;;;;;1.75;1.23;;;17.40;65.00;;;;;;4976234;28;20131;-13
2022/03/16 03:28:18;;;;;;;1.20;1.10;;;17.40;64.90;;;;;;4976776;28;20097;-14
2022/03/16 03:30:43;;;;;;;1.20;1.20;;;17.40;65.00;;;;;;4985737;28;20414;-13
2022/03/16 03:33:09;;;;;;;1.15;1.15;;;17.40;65.00;;;;;;4993002;28;20046;-13
2022/03/16 03:35:35;;;;;;;1.08;1.08;;;17.40;64.90;;;;;;4976735;28;20043;-13
2022/03/16 03:38:00;;;;;;;1.40;1.40;;;17.40;65.00;;;;;;4981773;28;20038;-13
2022/03/16 03:40:26;;;;;;;0.90;0.90;;;17.40;64.90;;;;;;4996125;28;20561;-13
2022/03/16 03:42:52;;;;;;;1.15;1.15;;;17.40;65.00;;;;;;4994803;28;20042;-13
2022/03/16 03:45:17;;;;;;;1.30;1.20;;;17.40;64.90;;;;;;4995618;28;20399;-13
2022/03/16 03:47:43;;;;;;;1.30;1.30;;;17.40;64.90;;;;;;4995976;28;20034;-13
2022/03/16 03:50:09;;;;;;;1.00;1.00;;;17.40;65.00;;;;;;4995360;28;20054;-14
2022/03/16 03:52:34;;;;;;;1.10;1.10;;;17.40;65.00;;;;;;4995383;28;20077;-12
2022/03/16 03:55:00;;;;;;;1.27;1.17;;;17.40;65.00;;;;;;4994860;28;20070;-13
2022/03/16 03:57:26;;;;;;;0.90;0.90;;;17.40;64.90;;;;;;4995797;28;20038;-13
2022/03/16 03:59:51;;;;;;;1.35;1.33;;;17.40;65.00;;;;;;4994664;28;20042;-13
2022/03/16 04:02:17;;;;;;;1.10;1.10;;;17.40;65.00;;;;;;4995789;28;20050;-14
2022/03/16 04:04:42;;;;;;;1.17;1.17;;;17.40;65.00;;;;;;4995045;28;20550;-13
2022/03/16 04:07:08;;;;;;;1.05;1.05;;;17.40;64.90;;;;;;4975799;28;20069;-13
2022/03/16 04:09:34;;;;;;;0.93;0.93;;;17.40;64.90;;;;;;4991111;28;20420;-13
2022/03/16 04:11:59;;;;;;;1.38;0.90;;;17.40;65.00;;;;;;4994758;28;20499;-12
2022/03/16 04:14:25;;;;;;;1.38;1.27;;;17.40;65.00;;;;;;4995689;28;20050;-14
2022/03/16 04:16:50;;;;;;;0.80;0.80;;;17.40;65.10;;;;;;4994712;28;20066;-13
2022/03/16 04:19:16;;;;;;;1.17;1.13;;;17.40;65.00;;;;;;4995610;28;20062;-13
2022/03/16 04:21:42;;;;;;;1.58;1.30;;;17.40;65.00;;;;;;4995616;28;20096;-13
2022/03/16 04:24:08;;;;;;;1.10;1.10;;;17.40;65.70;;;;;;4995000;28;20078;-14
2022/03/16 04:26:34;;;;;;;1.05;0.95;;;17.40;65.10;;;;;;4989849;28;20054;-14
2022/03/16 04:28:59;;;;;;;1.30;1.30;;;17.40;65.00;;;;;;4975381;28;20139;-14
2022/03/16 04:31:25;;;;;;;0.98;0.98;;;17.40;65.10;;;;;;4990194;28;20042;-13
2022/03/16 04:33:52;;;;;;;0.82;0.82;;;17.40;65.10;;;;;;4995706;28;20046;-14
2022/03/16 04:36:17;;;;;;;0.85;0.85;;;17.40;65.10;;;;;;4986395;28;20066;-13
2022/03/16 04:38:43;;;;;;;1.10;1.10;;;17.40;65.00;;;;;;4994420;28;20061;-13
2022/03/16 04:41:08;;;;;;;1.25;1.20;;;17.40;65.00;;;;;;4993474;28;20503;-13
2022/03/16 04:43:34;;;;;;;1.08;1.08;;;17.40;65.00;;;;;;4995415;28;20054;-14
2022/03/16 04:46:00;;;;;;;1.33;1.33;;;17.40;65.10;;;;;;4994472;28;20043;-14
2022/03/16 04:48:25;;;;;;;0.93;0.93;;;17.40;65.00;;;;;;4995639;28;20074;-13
2022/03/16 04:50:51;;;;;;;0.80;0.80;;;17.40;65.00;;;;;;4995490;28;20042;-13
2022/03/16 04:53:16;;;;;;;1.17;1.08;;;17.40;65.00;;;;;;4994822;28;20061;-14
2022/03/16 04:55:42;;;;;;;1.27;1.05;;;17.40;65.10;;;;;;4992863;28;20124;-14
2022/03/16 04:58:08;;;;;;;1.20;1.20;;;17.40;65.10;;;;;;4978796;28;20051;-14
2022/03/16 05:00:35;;;;;;;1.20;1.02;;;17.30;65.10;;;;;;4979391;28;20047;-13
2022/03/16 05:03:01;;;;;;;0.93;0.93;;;17.30;65.10;;;;;;4979349;28;20050;-13
2022/03/16 05:05:27;;;;;;;1.25;1.10;;;17.40;65.10;;;;;;4979004;28;20039;-13
2022/03/16 05:07:53;;;;;;;0.70;0.70;;;17.40;65.10;;;;;;4979662;28;20074;-14
2022/03/16 05:10:18;;;;;;;0.80;0.80;;;17.30;65.00;;;;;;4998745;28;20038;-12
2022/03/16 05:12:44;;;;;;;1.00;1.00;;;17.40;65.00;;;;;;4997857;28;20072;-13
2022/03/16 05:15:13;;;;;;;1.13;1.13;;;17.40;65.00;;;;;;4998100;28;20120;-13
2022/03/16 05:17:38;;;;;;;1.02;1.02;;;17.40;65.00;;;;;;4988491;28;20047;-13
2022/03/16 05:20:06;;;;;;;1.48;0.88;;;17.40;65.00;;;;;;4978358;28;20065;-13
2022/03/16 05:22:31;;;;;;;1.00;1.00;;;17.40;65.00;;;;;;4979216;28;20129;-13
2022/03/16 05:24:57;;;;;;;0.90;0.90;;;17.40;65.00;;;;;;4978584;28;20067;-13
2022/03/16 05:27:22;;;;;;;0.80;0.80;;;17.30;65.00;;;;;;4979014;28;20050;-13
2022/03/16 05:29:48;;;;;;;1.10;1.10;;;17.30;65.10;;;;;;4989236;28;20219;-14
2022/03/16 05:32:14;;;;;;;1.85;1.05;;;17.30;65.20;;;;;;4997755;28;20054;-14
2022/03/16 05:34:40;;;;;;;1.35;1.00;;;17.30;65.10;;;;;;4997696;28;20050;-13
2022/03/16 05:37:06;;;;;;;0.80;0.80;;;17.30;65.10;;;;;;4997684;28;20046;-12
2022/03/16 05:39:32;;;;;;;0.98;0.93;;;17.30;65.00;;;;;;4998334;28;20096;-13
2022/03/16 05:41:57;;;;;;;0.80;0.80;;;17.30;65.10;;;;;;4996988;28;20046;-13
2022/03/16 05:44:23;;;;;;;1.30;1.02;;;17.30;65.10;;;;;;4998016;28;20125;-14
2022/03/16 05:46:50;;;;;;;1.23;1.00;;;17.30;65.00;;;;;;4980877;28;20503;-13
2022/03/16 05:49:15;;;;;;;1.02;1.02;;;17.30;65.10;;;;;;4978398;28;20062;-13
2022/03/16 05:51:41;;;;;;;1.40;1.30;;;17.30;65.10;;;;;;4986170;28;20050;-13
2022/03/16 05:54:06;;;;;;;0.80;0.80;;;17.30;65.00;;;;;;4997516;28;20042;-13
2022/03/16 05:56:33;;;;;;;1.08;1.05;;;17.30;65.00;;;;;;4998108;28;20046;-13
2022/03/16 05:58:58;;;;;;;0.93;0.93;;;17.30;65.00;;;;;;4997096;28;20046;-13
2022/03/16 06:01:24;;;;;;;0.90;0.90;;;17.30;64.90;;;;;;4997297;28;20596;-14
2022/03/16 06:03:50;;;;;;;1.20;1.15;;;17.30;65.00;;;;;;4996315;28;20046;-13
2022/03/16 06:06:16;;;;;;;1.08;1.08;;;17.30;65.00;;;;;;4997060;28;20050;-14
2022/03/16 06:08:42;;;;;;;1.35;1.25;;;17.30;65.00;;;;;;4997116;28;20043;-13
2022/03/16 06:11:08;;;;;;;0.90;0.90;;;17.30;65.00;;;;;;4981769;28;20042;-14
2022/03/16 06:13:34;;;;;;;1.00;1.00;;;17.30;65.10;;;;;;4976634;28;20042;-13
2022/03/16 06:15:59;;;;;;;1.00;0.98;;;17.30;65.00;;;;;;4977522;28;20039;-13
2022/03/16 06:18:25;;;;;;;0.93;0.93;;;17.30;65.20;;;;;;4977870;28;20064;-13
2022/03/16 06:20:50;;;;;;;0.90;0.90;;;17.30;65.20;;;;;;4978130;28;20035;-13
2022/03/16 06:23:16;;;;;;;1.00;0.90;;;17.30;65.10;;;;;;4991752;28;20105;-13
2022/03/16 06:25:42;;;;;;;2.13;1.00;;;17.30;65.20;;;;;;4997351;28;20043;-13
2022/03/16 06:28:07;;;;;;;0.90;0.90;;;17.30;65.20;;;;;;4988814;28;20133;-14
2022/03/16 06:30:33;;;;;;;1.02;1.02;;;17.30;65.10;;;;;;4989742;28;20081;-14
2022/03/16 06:32:59;;;;;;;0.93;0.93;;;17.30;65.10;;;;;;4996462;28;20088;-14
2022/03/16 06:35:24;;;;;;;0.98;0.88;;;17.30;65.30;;;;;;4997108;28;20621;-14
2022/03/16 06:37:50;;;;;;;1.05;1.05;;;17.30;65.20;;;;;;4632864;28;9999689;-14
2022/03/16 06:40:15;;;;;;;1.30;1.08;;;17.30;65.10;;;;;;4991454;28;20842;-13
2022/03/16 06:42:49;;;;;;;1.40;1.05;;;17.30;65.30;;;;;;4999894;28;20100;-12
2022/03/16 06:45:15;;;;;;;1.60;1.50;;;17.30;65.20;;;;;;4994983;28;20133;-15
2022/03/16 06:47:41;;;;;;;2.17;1.08;;;17.30;65.30;;;;;;4999218;28;20292;-13
2022/03/16 06:50:07;;;;;;;1.27;1.20;;;17.30;65.40;;;;;;5011662;28;20042;-13
2022/03/16 06:52:33;;;;;;;1.08;1.08;;;17.30;65.30;;;;;;4994069;28;20057;-13
2022/03/16 06:54:58;;;;;;;1.05;1.05;;;17.30;65.30;;;;;;5002344;28;20042;-13
2022/03/16 06:57:24;;;;;;;1.25;1.23;;;17.30;65.20;;;;;;4997611;28;20048;-12
2022/03/16 06:59:49;;;;;;;1.27;1.27;;;17.30;65.00;;;;;;5001571;28;20046;-13
2022/03/16 07:02:16;;;;;;;1.27;1.27;;;17.30;64.90;;;;;;5011722;28;20140;-14
2022/03/16 07:04:42;;;;;;;1.75;0.90;;;17.30;64.80;;;;;;4995630;28;20141;-13
2022/03/16 07:07:07;;;;;;;1.00;1.00;;;17.30;64.80;;;;;;4987696;28;20061;-16
2022/03/16 07:09:33;;;;;;;2.15;1.10;;;17.40;65.00;;;;;;4984249;28;20054;-12
2022/03/16 07:11:59;;;;;;;1.20;1.13;;;17.30;65.20;;;;;;4984872;28;20058;-14
2022/03/16 07:14:30;;;;;;;1.42;1.33;;;17.20;65.50;;;;;;4991599;28;20054;-12
2022/03/16 07:16:57;;;;;;;0.85;0.85;;;17.20;65.70;;;;;;4988767;28;20042;-13
2022/03/16 07:19:22;;;;;;;1.05;1.05;;;17.20;65.90;;;;;;4983065;28;20058;-13
2022/03/16 07:21:48;;;;;;;1.10;1.10;;;17.20;66.30;;;;;;4983578;28;20050;-12
2022/03/16 07:24:14;;;;;;;0.98;0.98;;;17.20;66.30;;;;;;4989113;28;20054;-14
2022/03/16 07:26:39;;;;;;;0.90;0.90;;;17.20;66.00;;;;;;5003765;28;20042;-13
2022/03/16 07:29:05;;;;;;;2.08;1.30;;;17.20;66.30;;;;;;4992517;28;20038;-11
2022/03/16 07:31:31;;;;;;;1.10;1.00;;;17.20;66.50;;;;;;4993430;28;20574;-13
2022/03/16 07:33:57;;;;;;;1.20;1.10;;;17.30;66.20;;;;;;4992358;28;20464;-13
2022/03/16 07:36:23;;;;;;;1.00;1.00;;;17.30;66.60;;;;;;4993136;28;20046;-13
2022/03/16 07:38:48;;;;;;;1.10;1.00;;;17.30;66.60;;;;;;4991780;28;20061;-13
2022/03/16 07:41:15;;;;;;;1.10;1.08;;;17.30;67.20;;;;;;4989128;28;20046;-13
2022/03/16 07:43:41;;;;;;;0.88;0.88;;;17.20;66.40;;;;;;4993729;28;20042;-14
2022/03/16 07:46:06;;;;;;;1.02;0.90;;;17.20;66.50;;;;;;4994522;28;20049;-13
2022/03/16 07:48:34;;;;;;;1.02;0.93;;;17.30;67.20;;;;;;4995940;28;20039;-13
2022/03/16 07:51:02;;;;;;;1.00;1.00;;;17.30;66.60;;;;;;4986771;28;20162;-13
2022/03/16 07:53:28;;;;;;;0.88;0.77;;;17.30;66.90;;;;;;4993977;28;20099;-13
2022/03/16 07:55:56;;;;;;;1.30;1.20;;;17.30;66.20;;;;;;4983883;28;20046;-13
2022/03/16 07:58:22;;;;;;;1.25;0.88;;;17.40;66.10;;;;;;4975738;28;20123;-13
2022/03/16 08:00:48;;;;;;;1.08;1.08;;;17.40;65.90;;;;;;4979126;28;20043;-13
2022/03/16 08:03:13;;;;;;;0.80;0.80;;;17.40;65.70;;;;;;4995127;28;20097;-14
2022/03/16 08:05:39;;;;;;;0.85;0.85;;;17.40;65.70;;;;;;4995259;28;20042;-13
2022/03/16 08:08:05;;;;;;;0.95;0.95;;;17.40;65.70;;;;;;4989995;28;20412;-13
2022/03/16 08:10:31;;;;;;;0.77;0.77;;;17.40;65.80;;;;;;4975914;28;20090;-13
2022/03/16 08:12:56;;;;;;;0.90;0.90;;;17.40;65.80;;;;;;4988246;28;20038;-14
2022/03/16 08:15:22;;;;;;;1.95;1.00;;;17.30;65.90;;;;;;4985186;28;20045;-14
2022/03/16 08:17:48;;;;;;;1.10;1.00;;;17.30;65.90;;;;;;4992292;28;20039;-14
2022/03/16 08:20:13;;;;;;;0.88;0.82;;;17.30;65.90;;;;;;4994103;28;20097;-14
2022/03/16 08:22:39;;;;;;;0.93;0.90;;;17.30;65.90;;;;;;4994470;28;20046;-13
2022/03/16 08:25:07;;;;;;;0.98;0.98;;;17.30;65.90;;;;;;4988954;28;20059;-13
2022/03/16 08:27:32;;;;;;;1.30;1.20;;;17.30;66.30;;;;;;4993168;28;20412;-12
2022/03/16 08:29:58;;;;;;;0.80;0.80;;;17.30;66.10;;;;;;4995109;28;20124;-13
2022/03/16 08:32:24;;;;;;;0.90;0.90;;;17.40;65.90;;;;;;4997801;28;20054;-12
2022/03/16 08:34:50;;;;;;;1.73;0.98;;;17.40;66.40;;;;;;4999180;28;20487;-12
2022/03/16 08:37:17;;;;;;;0.93;0.93;;;17.30;66.30;;;;;;4997756;28;20149;-14
2022/03/16 08:39:42;;;;;;;1.17;1.08;;;17.40;66.00;;;;;;4997441;28;20042;-13
2022/03/16 08:42:11;;;;;;;1.58;1.20;;;17.40;65.90;;;;;;4997422;28;20045;-13
2022/03/16 08:44:36;;;;;;;0.82;0.82;;;17.40;65.90;;;;;;4998664;28;20057;-13
2022/03/16 08:47:02;;;;;;;1.70;0.90;;;17.30;65.90;;;;;;4999154;28;20042;-14
2022/03/16 08:49:29;;;;;;;1.00;1.00;;;17.30;65.90;;;;;;4996994;28;20050;-13
2022/03/16 08:51:56;;;;;;;1.30;1.20;;;17.30;65.90;;;;;;4998531;28;20049;-12
2022/03/16 08:54:22;;;;;;;0.77;0.77;;;17.30;66.10;;;;;;4989481;28;20050;-13
2022/03/16 08:56:48;;;;;;;0.82;0.82;;;17.30;66.10;;;;;;4995940;28;20038;-12
2022/03/16 08:59:14;;;;;;;0.70;0.70;;;17.30;66.00;;;;;;4996406;28;20046;-14
2022/03/16 09:01:39;;;;;;;0.60;0.60;;;17.30;66.20;;;;;;4997784;28;20035;-13
2022/03/16 09:04:05;;;;;;;0.95;0.95;;;17.30;66.50;;;;;;4982418;28;20058;-14
2022/03/16 09:06:31;;;;;;;1.88;1.00;;;17.40;66.30;;;;;;4984434;28;20708;-14
2022/03/16 09:08:56;;;;;;;0.88;0.85;;;17.40;66.10;;;;;;4987383;28;20046;-14
2022/03/16 09:11:22;;;;;;;1.15;1.00;;;17.40;66.10;;;;;;4983510;28;20070;-13
2022/03/16 09:13:47;;;;;;;1.52;0.90;;;17.30;66.00;;;;;;4984066;28;21321;-13
2022/03/16 09:16:14;;;;;;;0.80;0.80;;;17.30;66.10;;;;;;4982890;28;20424;-12
2022/03/16 09:18:40;;;;;;;0.70;0.70;;;17.40;66.10;;;;;;4984125;28;20050;-14
2022/03/16 09:21:06;;;;;;;0.80;0.80;;;17.40;66.10;;;;;;4984268;28;20053;-13
2022/03/16 09:23:32;;;;;;;1.90;0.90;;;17.40;66.10;;;;;;4983822;28;20549;-13
2022/03/16 09:26:01;;;;;;;1.33;1.23;;;17.40;66.00;;;;;;4984072;28;20628;-13
2022/03/16 09:28:27;;;;;;;1.38;1.00;;;17.40;66.10;;;;;;4981944;28;20054;-13
2022/03/16 09:30:52;;;;;;;0.93;0.90;;;17.40;66.00;;;;;;4984285;28;20057;-14
2022/03/16 09:33:18;;;;;;;1.20;1.10;;;17.40;65.90;;;;;;4983524;28;20058;-13
2022/03/16 09:35:48;;;;;;;0.70;0.70;;;17.40;65.90;;;;;;4983591;28;21515;-12
2022/03/16 09:38:15;;;;;;;0.77;0.75;;;17.40;65.80;;;;;;4982233;28;20086;-13
2022/03/16 09:40:41;;;;;;;1.13;0.93;;;17.40;65.80;;;;;;4990402;28;20069;-14
2022/03/16 09:43:10;;;;;;;0.80;0.80;;;17.50;66.10;;;;;;4995314;28;20404;-14
2022/03/16 09:45:55;;;;;;;0.60;0.60;;;17.40;65.80;;;;;;4996352;28;20096;-13
2022/03/16 09:48:23;;;;;;;1.60;0.95;;;17.40;66.30;;;;;;4995609;28;20038;-13
2022/03/16 09:50:49;;;;;;;0.75;0.75;;;17.50;65.80;;;;;;4989928;28;20057;-13
2022/03/16 09:53:15;;;;;;;0.90;0.90;;;17.50;65.80;;;;;;4995431;28;20073;-14
2022/03/16 09:55:41;;;;;;;0.85;0.85;;;17.40;65.80;;;;;;4997534;28;20104;-14
2022/03/16 09:58:07;;;;;;;3.03;0.80;;;17.40;65.70;;;;;;4996737;28;20061;-12
2022/03/16 10:00:33;;;;;;;0.73;0.73;;;17.50;65.80;;;;;;4997153;28;20046;-14
2022/03/16 10:03:02;;;;;;;0.88;0.88;;;17.50;66.70;;;;;;4992246;28;20409;-13
2022/03/16 10:05:28;;;;;;;1.58;0.90;;;17.40;65.90;;;;;;4977631;28;20035;-13
2022/03/16 10:07:54;;;;;;;0.93;0.82;;;17.40;65.70;;;;;;4977952;28;20066;-13
2022/03/16 10:13:19;;;;;;;1.08;1.08;;;17.50;65.70;;;;;;4996049;28;20077;-13
2022/03/16 10:15:45;;;;;;;0.63;0.60;;;17.60;65.80;;;;;;4997403;28;20041;-13
2022/03/16 10:18:13;;;;;;;0.98;0.95;;;17.60;65.60;;;;;;4995990;28;20046;-15
2022/03/16 10:20:40;;;;;;;0.70;0.70;;;17.60;65.70;;;;;;4995366;28;20046;-13
2022/03/16 10:23:18;;;;;;;0.90;0.90;;;17.50;65.50;;;;;;4996069;28;20399;-13
2022/03/16 10:25:45;;;;;;;0.80;0.80;;;17.50;65.50;;;;;;5011398;28;20038;-12
2022/03/16 10:28:22;;;;;;;1.15;0.90;;;17.50;65.50;;;;;;4996400;28;20042;-14
2022/03/16 10:31:07;;;;;;;1.67;0.68;;;17.50;65.60;;;;;;4996094;28;20495;-13
2022/03/16 10:33:50;;;;;;;0.88;0.80;;;17.50;65.70;;;;;;4995648;28;20054;-14
2022/03/16 10:36:22;;;;;;;0.80;0.80;;;17.50;65.60;;;;;;4986388;28;20069;-13
2022/03/16 10:38:51;;;;;;;0.70;0.70;;;17.50;65.60;;;;;;4996419;28;20133;-12
2022/03/16 10:47:02;;;;;;;2.15;0.70;;;17.60;66.00;;;;;;4985279;28;20093;-13
2022/03/16 10:49:34;;;;;;;0.85;0.85;;;17.60;65.80;;;;;;4983068;28;20038;-12
2022/03/16 10:52:05;;;;;;;1.17;1.17;;;17.60;65.60;;;;;;4986013;28;20073;-12
2022/03/16 10:54:31;;;;;;;0.85;0.80;;;17.50;65.70;;;;;;4983886;28;20070;-14
2022/03/16 10:56:58;;;;;;;1.55;0.70;;;17.50;66.00;;;;;;4983348;28;20039;-14
2022/03/16 10:59:27;;;;;;;0.82;0.82;;;17.60;65.60;;;;;;4983952;28;20463;-13
2022/03/16 11:01:53;;;;;;;1.45;0.95;;;17.60;65.50;;;;;;4984658;28;20534;-13
2022/03/16 11:04:24;;;;;;;0.80;0.80;;;17.50;65.60;;;;;;4983460;28;20043;-13
2022/03/16 11:06:50;;;;;;;0.68;0.68;;;17.50;65.50;;;;;;4982926;28;20043;-13
2022/03/16 11:09:17;;;;;;;0.60;0.60;;;17.50;65.50;;;;;;4987115;28;20045;-14
2022/03/16 11:14:27;;;;;;;0.70;0.70;;;17.50;65.50;;;;;;4993706;28;20053;-13
2022/03/16 11:16:52;;;;;;;0.90;0.90;;;17.50;65.50;;;;;;4995799;28;20133;-14
2022/03/16 11:19:18;;;;;;;1.02;0.80;;;17.50;65.50;;;;;;4994043;28;20121;-13
2022/03/16 11:21:56;;;;;;;4.88;0.77;;;17.50;65.50;;;;;;4986008;28;20043;-14
2022/03/16 11:24:24;;;;;;;0.80;0.80;;;17.50;65.40;;;;;;4989950;28;20062;-14
2022/03/16 11:27:17;;;;;;;0.90;0.90;;;17.50;65.40;;;;;;4994556;28;20042;-15
2022/03/16 11:30:08;;;;;;;1.20;1.10;;;17.50;65.50;;;;;;4994973;28;20050;-13
2022/03/16 11:32:39;;;;;;;0.90;0.90;;;17.60;65.50;;;;;;4995542;28;20050;-14
2022/03/16 11:35:13;;;;;;;2.40;1.00;;;17.50;65.30;;;;;;4995032;28;20046;-14
2022/03/16 11:37:46;;;;;;;0.70;0.70;;;17.60;65.50;;;;;;4995159;28;20080;-13
2022/03/16 11:40:20;;;;;;;1.55;0.75;;;17.50;65.40;;;;;;4996006;28;20046;-14
2022/03/16 11:43:04;;;;;;;0.82;0.82;;;17.50;65.30;;;;;;4978566;28;20393;-13
2022/03/16 11:45:32;;;;;;;1.33;1.13;;;17.60;65.40;;;;;;4995251;28;20050;-15
2022/03/16 11:47:57;;;;;;;1.02;1.00;;;17.60;65.30;;;;;;4639346;28;10000017;-14
2022/03/16 11:50:23;;;;;;;1.15;0.90;;;17.60;65.80;;;;;;4989040;28;20046;-14
2022/03/16 11:53:08;;;;;;;0.70;0.70;;;17.60;65.50;;;;;;5000375;28;20069;-13
2022/03/16 11:55:42;;;;;;;0.90;0.90;;;17.60;65.80;;;;;;4985643;28;20088;-14
2022/03/16 11:58:28;;;;;;;0.73;0.70;;;17.60;65.70;;;;;;5004653;28;20042;-13
2022/03/16 12:01:29;;;;;;;0.90;0.82;;;17.60;65.70;;;;;;4991185;28;20042;-14
2022/03/16 12:04:08;;;;;;;0.90;0.90;;;17.60;66.00;;;;;;5007135;28;20126;-14
2022/03/16 12:07:02;;;;;;;1.33;1.10;;;17.60;66.20;;;;;;4998827;28;20056;-14
2022/03/16 12:09:47;;;;;;;2.58;0.90;;;17.60;66.90;;;;;;5001799;28;20045;-13
2022/03/16 12:15:15;;;;;;;1.20;1.10;;;17.50;67.00;;;;;;4992701;28;20044;-14
2022/03/16 12:17:42;;;;;;;1.30;1.10;;;17.60;66.50;;;;;;5012041;28;20047;-13
2022/03/16 12:20:17;;;;;;;0.70;0.70;;;17.60;66.10;;;;;;5005697;28;20054;-13
2022/03/16 12:22:47;;;;;;;0.70;0.70;;;17.70;65.90;;;;;;4995132;28;20112;-13
2022/03/16 12:25:27;;;;;;;0.82;0.82;;;17.70;65.70;;;;;;5007208;28;20080;-13
2022/03/16 12:31:01;;;;;;;0.75;0.75;;;17.60;65.70;;;;;;4995421;28;20175;-14
2022/03/16 12:33:56;;;;;;;0.80;0.80;;;17.70;65.80;;;;;;4991602;28;20046;-13
2022/03/16 12:36:23;;;;;;;1.95;0.70;;;17.70;66.10;;;;;;4985987;28;20908;-13
2022/03/16 12:39:13;;;;;;;1.15;1.15;;;17.60;66.50;;;;;;4998859;28;20081;-13
2022/03/16 12:44:22;;;;;;;0.73;0.73;;;17.60;66.70;;;;;;4995077;28;20053;-13
2022/03/16 12:47:22;;;;;;;0.75;0.75;;;17.60;66.70;;;;;;4995419;28;20046;-12
2022/03/16 12:49:48;;;;;;;1.95;1.13;;;17.60;66.90;;;;;;4996753;28;20050;-13
2022/03/16 12:52:14;;;;;;;0.80;0.80;;;17.60;67.10;;;;;;4999581;28;20049;-13
2022/03/16 12:54:41;;;;;;;0.90;0.80;;;17.60;66.90;;;;;;4999314;28;20046;-13
2022/03/16 12:57:10;;;;;;;0.85;0.80;;;17.60;66.50;;;;;;4994728;28;20054;-13
2022/03/16 12:59:38;;;;;;;1.35;1.30;;;17.60;66.50;;;;;;4994160;28;20042;-14
2022/03/16 13:02:10;;;;;;;0.90;0.90;;;17.60;66.20;;;;;;4991844;28;20058;-14
2022/03/16 13:04:36;;;;;;;0.70;0.70;;;17.70;66.50;;;;;;4994328;28;20050;-15
2022/03/16 13:07:02;;;;;;;0.73;0.73;;;17.60;66.40;;;;;;5003610;28;20061;-14